Airfield :
LOGIN :

Register | Disclaimer

   EN    FR    IT 

 










Legend :    VFR   Marginal VFR   IFR   Intensive IFR   Very Intensive IFR
Visi :
Ceiling :
>= 8 km
>= 3000ft
5 to 8 km
1000 to 3000 ft
1500m to 5 km
500 to 1000 ft
800 to 1500m
200 to 500 ft
< 800m
< 200 ft
Symbols :   Thunderstorms  Fog  Heavy snow  Heavy precipitations  Wind > 20 kt
SIGMETs :     Misc.  Thunderstorms  Icing  Turbulence  Mountain Waves  Volcanic Ashes






- Airport Elevation : 171 ft
- IATA code : EGC


LFBE - Bergerac

CURRENT METAR :
  • 220200Z AUTO 20003KT 170V240 9999 FEW010 SCT049 BKN098 15/14 Q1012 TEMPO 4000 SHRA BKN020TCU

EXPIRED METARs :
  • 220130Z AUTO 21006KT 180V240 CAVOK 16/14 Q1012 TEMPO 4000 SHRA BKN020TCU
  • 220100Z AUTO 20006KT 9999 FEW037 BKN094 16/14 Q1012 TEMPO 4000 SHRA BKN020TCU
  • 220030Z AUTO 21004KT 170V240 9999 SCT031 BKN042 17/14 Q1012 TEMPO 4000 SHRA BKN020TCU
  • 220000Z AUTO 19004KT CAVOK 16/13 Q1012 TEMPO 4000 SHRA BKN020TCU
  • 212330Z AUTO 23005KT CAVOK 17/14 Q1012 TEMPO 4000 SHRA BKN020TCU

TAF TAF LFBE
Valid from the 22 at 00:00 until the 23 at 00:00 UTC


212300Z 2200/2224 24005KT CAVOK
TEMPO 2200/2218 4000 SHRA BKN020TCU
PROB30
TEMPO 2206/2216 1500 TSRA BKN010 BKN015CB



MET'MAP, your aeronautical weather chart ! - Copyright ORBIFLY December 2007 - Disclaimer

ORBIFLY MET'MAP TEAM :

Programming & Development : Alexandra Zaïnal
Concept & original design : Baudouin d'Aumeries
Assistance for programming : Marc-Olivier Méhu
Technical & hardware support : Manuel Goepfert

Contact : metmap@orbifly.com




SOURCES & CREDITS :

   NOAA